This is the latest recevied weather packets stored in our database for station/object OM2RC-6. If no packets are shown the sender has not sent any weather packets the latest 10 day(s).
| Time | Temp. | Humidity | Pressure | Rain* | Wind** | Luminosity | Snow |
|---|---|---|---|---|---|---|---|
| 1777526135 | 7.22° C | 61% | 1031.8 hPa | - | - | - | - |
| 1777525834 | 5.56° C | 72% | 1031.9 hPa | - | - | - | - |
| 1777525533 | 6.11° C | 61% | 1032 hPa | - | - | - | - |
| 1777525233 | 6.67° C | 61% | 1031.9 hPa | - | - | - | - |
| 1777524932 | 8.33° C | 53% | 1031.8 hPa | - | - | - | - |
| 1777524330 | 6.11° C | 66% | 1031.9 hPa | - | - | - | - |
| 1777523728 | 4.44° C | 77% | 1031.9 hPa | - | - | - | - |
| 1777523426 | 1.11° C | 90% | 1032 hPa | - | - | - | - |
| 1777522824 | 1.67° C | 94% | 1031.9 hPa | - | - | - | - |
| 1777522523 | 0° C | 100% | 1032 hPa | - | - | - | - |
| 1777522222 | -1.11° C | 100% | 1032.1 hPa | - | - | - | - |
| 1777521921 | -1.67° C | 100% | 1032.1 hPa | - | - | - | - |
| 1777521620 | -2.22° C | 100% | 1032.1 hPa | - | - | - | - |
| 1777521318 | -2.22° C | 100% | 1031.9 hPa | - | - | - | - |
| 1777520716 | -2.22° C | 100% | 1031.9 hPa | - | - | - | - |
| 1777520415 | -2.22° C | 100% | 1031.9 hPa | - | - | - | - |
| 1777520114 | -2.22° C | 100% | 1031.8 hPa | - | - | - | - |
| 1777519813 | -3.33° C | 100% | 1031.7 hPa | - | - | - | - |
| 1777519512 | -2.78° C | 100% | 1031.7 hPa | - | - | - | - |
| 1777519211 | -3.33° C | 100% | 1031.7 hPa | - | - | - | - |
| 1777518910 | -2.78° C | 100% | 1031.6 hPa | - | - | - | - |
| 1777518609 | -3.33° C | 100% | 1031.5 hPa | - | - | - | - |
| 1777518007 | -2.22° C | 100% | 1031.4 hPa | - | - | - | - |
| 1777517706 | -2.22° C | 100% | 1031.5 hPa | - | - | - | - |
| 1777517405 | -1.67° C | 100% | 1031.5 hPa | - | - | - | - |
* Rain since midnight (hover to see other rain measurements)
** Current wind speed in m/s (hover to see current wind gust speed)